sensor_id;sensor_type;location;lat;lon;timestamp;P1;durP1;ratioP1;P2;durP2;ratioP2
37455;SDS011;23316;50.718;7.328;2024-03-08T00:01:26;8.25;;;6.72;;
37455;SDS011;23316;50.718;7.328;2024-03-08T00:03:53;8.68;;;6.60;;
37455;SDS011;23316;50.718;7.328;2024-03-08T00:06:20;10.52;;;6.90;;
37455;SDS011;23316;50.718;7.328;2024-03-08T00:08:47;9.55;;;6.80;;
37455;SDS011;23316;50.718;7.328;2024-03-08T00:11:15;8.23;;;7.03;;
37455;SDS011;23316;50.718;7.328;2024-03-08T00:13:43;8.15;;;6.70;;
37455;SDS011;23316;50.718;7.328;2024-03-08T00:16:10;9.07;;;7.13;;
37455;SDS011;23316;50.718;7.328;2024-03-08T00:18:40;10.55;;;7.57;;
37455;SDS011;23316;50.718;7.328;2024-03-08T00:21:07;8.43;;;6.95;;
37455;SDS011;23316;50.718;7.328;2024-03-08T00:23:36;9.75;;;7.20;;
37455;SDS011;23316;50.718;7.328;2024-03-08T04:08:04;12.25;;;9.23;;
37455;SDS011;23316;50.718;7.328;2024-03-08T04:10:31;13.02;;;8.98;;
37455;SDS011;23316;50.718;7.328;2024-03-08T04:12:59;12.20;;;9.20;;
37455;SDS011;23316;50.718;7.328;2024-03-08T04:15:26;12.30;;;9.13;;
37455;SDS011;23316;50.718;7.328;2024-03-08T04:17:53;12.02;;;8.88;;
37455;SDS011;23316;50.718;7.328;2024-03-08T04:20:20;13.63;;;8.75;;
37455;SDS011;23316;50.718;7.328;2024-03-08T04:22:47;12.57;;;9.07;;
37455;SDS011;23316;50.718;7.328;2024-03-08T04:25:16;13.32;;;9.60;;
37455;SDS011;23316;50.718;7.328;2024-03-08T04:27:43;12.15;;;9.55;;
37455;SDS011;23316;50.718;7.328;2024-03-08T04:30:11;11.25;;;8.60;;
37455;SDS011;23316;50.718;7.328;2024-03-08T04:32:38;12.10;;;8.98;;
37455;SDS011;23316;50.718;7.328;2024-03-08T04:35:07;13.40;;;9.07;;
37455;SDS011;23316;50.718;7.328;2024-03-08T04:37:34;13.35;;;9.90;;
37455;SDS011;23316;50.718;7.328;2024-03-08T04:40:02;13.63;;;9.10;;
37455;SDS011;23316;50.718;7.328;2024-03-08T04:42:30;12.65;;;8.80;;
37455;SDS011;23316;50.718;7.328;2024-03-08T04:44:59;12.38;;;9.00;;
37455;SDS011;23316;50.718;7.328;2024-03-08T04:47:26;12.38;;;8.90;;
37455;SDS011;23316;50.718;7.328;2024-03-08T04:49:53;12.70;;;9.02;;
37455;SDS011;23316;50.718;7.328;2024-03-08T04:52:22;13.52;;;9.10;;
37455;SDS011;23316;50.718;7.328;2024-03-08T04:54:49;11.95;;;8.90;;
37455;SDS011;23316;50.718;7.328;2024-03-08T04:57:16;13.40;;;10.07;;
37455;SDS011;23316;50.718;7.328;2024-03-08T04:59:45;12.10;;;9.20;;
37455;SDS011;23316;50.718;7.328;2024-03-08T05:02:12;12.20;;;9.63;;
37455;SDS011;23316;50.718;7.328;2024-03-08T05:04:39;11.30;;;8.75;;
37455;SDS011;23316;50.718;7.328;2024-03-08T05:07:07;12.55;;;9.07;;
37455;SDS011;23316;50.718;7.328;2024-03-08T05:09:35;12.35;;;8.90;;
37455;SDS011;23316;50.718;7.328;2024-03-08T05:12:03;12.45;;;7.75;;
37455;SDS011;23316;50.718;7.328;2024-03-08T05:14:30;11.13;;;8.27;;
37455;SDS011;23316;50.718;7.328;2024-03-08T05:16:59;13.50;;;9.60;;
37455;SDS011;23316;50.718;7.328;2024-03-08T05:19:26;11.95;;;8.40;;
37455;SDS011;23316;50.718;7.328;2024-03-08T05:21:55;18.02;;;8.00;;
37455;SDS011;23316;50.718;7.328;2024-03-08T05:24:23;13.77;;;8.00;;
37455;SDS011;23316;50.718;7.328;2024-03-08T05:26:50;12.63;;;9.27;;
37455;SDS011;23316;50.718;7.328;2024-03-08T05:29:17;45.38;;;25.63;;
37455;SDS011;23316;50.718;7.328;2024-03-08T05:31:45;55.30;;;33.63;;
37455;SDS011;23316;50.718;7.328;2024-03-08T05:34:15;35.47;;;23.77;;
37455;SDS011;23316;50.718;7.328;2024-03-08T05:36:44;27.67;;;18.08;;
37455;SDS011;23316;50.718;7.328;2024-03-08T05:39:12;44.28;;;16.05;;
37455;SDS011;23316;50.718;7.328;2024-03-08T05:41:39;20.63;;;13.60;;
37455;SDS011;23316;50.718;7.328;2024-03-08T05:44:07;18.48;;;13.18;;
37455;SDS011;23316;50.718;7.328;2024-03-08T05:46:34;30.23;;;13.18;;
37455;SDS011;23316;50.718;7.328;2024-03-08T05:49:02;18.02;;;12.65;;
37455;SDS011;23316;50.718;7.328;2024-03-08T05:51:32;17.17;;;12.52;;
37455;SDS011;23316;50.718;7.328;2024-03-08T05:54:00;16.73;;;12.25;;
37455;SDS011;23316;50.718;7.328;2024-03-08T05:56:29;16.77;;;11.57;;
37455;SDS011;23316;50.718;7.328;2024-03-08T05:58:56;17.67;;;12.93;;
37455;SDS011;23316;50.718;7.328;2024-03-08T06:01:24;17.73;;;12.10;;
37455;SDS011;23316;50.718;7.328;2024-03-08T06:03:51;28.88;;;19.33;;
37455;SDS011;23316;50.718;7.328;2024-03-08T06:06:21;26.00;;;15.43;;
37455;SDS011;23316;50.718;7.328;2024-03-08T06:08:49;23.83;;;13.77;;
37455;SDS011;23316;50.718;7.328;2024-03-08T06:11:17;21.20;;;12.90;;
37455;SDS011;23316;50.718;7.328;2024-03-08T06:13:45;19.73;;;12.27;;
37455;SDS011;23316;50.718;7.328;2024-03-08T06:16:13;17.98;;;11.25;;
37455;SDS011;23316;50.718;7.328;2024-03-08T06:18:41;20.50;;;11.52;;
37455;SDS011;23316;50.718;7.328;2024-03-08T06:21:08;18.45;;;13.32;;
37455;SDS011;23316;50.718;7.328;2024-03-08T06:23:37;61.15;;;37.38;;
37455;SDS011;23316;50.718;7.328;2024-03-08T06:26:06;94.95;;;54.83;;
37455;SDS011;23316;50.718;7.328;2024-03-08T06:28:33;68.18;;;38.55;;
37455;SDS011;23316;50.718;7.328;2024-03-08T06:31:01;51.72;;;29.23;;
37455;SDS011;23316;50.718;7.328;2024-03-08T06:33:29;38.13;;;24.73;;
37455;SDS011;23316;50.718;7.328;2024-03-08T06:35:57;26.30;;;19.17;;
37455;SDS011;23316;50.718;7.328;2024-03-08T06:38:25;28.42;;;18.83;;
37455;SDS011;23316;50.718;7.328;2024-03-08T06:40:52;26.55;;;17.63;;
37455;SDS011;23316;50.718;7.328;2024-03-08T06:43:21;24.45;;;16.48;;
37455;SDS011;23316;50.718;7.328;2024-03-08T06:45:50;27.90;;;16.10;;
37455;SDS011;23316;50.718;7.328;2024-03-08T06:48:18;26.42;;;16.40;;
37455;SDS011;23316;50.718;7.328;2024-03-08T06:50:46;24.40;;;16.10;;
37455;SDS011;23316;50.718;7.328;2024-03-08T06:53:14;24.40;;;15.25;;
37455;SDS011;23316;50.718;7.328;2024-03-08T06:55:44;22.05;;;14.68;;
37455;SDS011;23316;50.718;7.328;2024-03-08T06:58:11;24.60;;;14.57;;
37455;SDS011;23316;50.718;7.328;2024-03-08T07:00:40;19.73;;;13.98;;
37455;SDS011;23316;50.718;7.328;2024-03-08T07:03:08;22.38;;;13.93;;
37455;SDS011;23316;50.718;7.328;2024-03-08T07:05:37;20.83;;;12.52;;
37455;SDS011;23316;50.718;7.328;2024-03-08T07:08:05;18.50;;;12.90;;
37455;SDS011;23316;50.718;7.328;2024-03-08T07:10:33;31.05;;;12.50;;
37455;SDS011;23316;50.718;7.328;2024-03-08T07:13:01;16.45;;;12.63;;
37455;SDS011;23316;50.718;7.328;2024-03-08T07:15:28;17.83;;;12.43;;
37455;SDS011;23316;50.718;7.328;2024-03-08T07:17:56;20.48;;;12.32;;
37455;SDS011;23316;50.718;7.328;2024-03-08T07:20:25;19.35;;;11.27;;
37455;SDS011;23316;50.718;7.328;2024-03-08T07:22:54;27.88;;;12.63;;
37455;SDS011;23316;50.718;7.328;2024-03-08T07:25:21;27.30;;;11.63;;
37455;SDS011;23316;50.718;7.328;2024-03-08T07:27:50;20.52;;;12.10;;
37455;SDS011;23316;50.718;7.328;2024-03-08T07:30:18;16.15;;;11.57;;
37455;SDS011;23316;50.718;7.328;2024-03-08T07:33:04;17.92;;;11.75;;
37455;SDS011;23316;50.718;7.328;2024-03-08T07:35:32;20.48;;;11.38;;
37455;SDS011;23316;50.718;7.328;2024-03-08T07:38:02;18.88;;;11.27;;
37455;SDS011;23316;50.718;7.328;2024-03-08T07:40:31;18.70;;;13.45;;
37455;SDS011;23316;50.718;7.328;2024-03-08T07:42:58;19.25;;;14.80;;
37455;SDS011;23316;50.718;7.328;2024-03-08T07:45:26;20.30;;;14.57;;
37455;SDS011;23316;50.718;7.328;2024-03-08T07:47:53;22.33;;;14.32;;
37455;SDS011;23316;50.718;7.328;2024-03-08T07:50:22;19.88;;;14.85;;
37455;SDS011;23316;50.718;7.328;2024-03-08T07:52:50;27.17;;;13.88;;
37455;SDS011;23316;50.718;7.328;2024-03-08T07:55:17;19.85;;;12.95;;
37455;SDS011;23316;50.718;7.328;2024-03-08T07:57:45;19.67;;;11.30;;
37455;SDS011;23316;50.718;7.328;2024-03-08T08:00:13;27.77;;;11.27;;
37455;SDS011;23316;50.718;7.328;2024-03-08T08:02:43;18.92;;;10.88;;
37455;SDS011;23316;50.718;7.328;2024-03-08T08:05:12;17.92;;;10.77;;
37455;SDS011;23316;50.718;7.328;2024-03-08T08:07:43;17.00;;;10.02;;
37455;SDS011;23316;50.718;7.328;2024-03-08T08:10:11;15.10;;;11.05;;
37455;SDS011;23316;50.718;7.328;2024-03-08T08:12:44;18.75;;;12.05;;
37455;SDS011;23316;50.718;7.328;2024-03-08T08:15:11;19.98;;;12.38;;
37455;SDS011;23316;50.718;7.328;2024-03-08T08:17:40;20.20;;;13.50;;
37455;SDS011;23316;50.718;7.328;2024-03-08T08:20:08;19.88;;;13.45;;
37455;SDS011;23316;50.718;7.328;2024-03-08T08:22:37;18.50;;;13.10;;
37455;SDS011;23316;50.718;7.328;2024-03-08T08:25:07;17.80;;;12.98;;
37455;SDS011;23316;50.718;7.328;2024-03-08T08:27:34;18.45;;;13.63;;
37455;SDS011;23316;50.718;7.328;2024-03-08T08:30:03;20.35;;;13.13;;
37455;SDS011;23316;50.718;7.328;2024-03-08T08:32:33;19.17;;;13.10;;
37455;SDS011;23316;50.718;7.328;2024-03-08T08:35:01;23.95;;;12.43;;
37455;SDS011;23316;50.718;7.328;2024-03-08T08:37:30;21.23;;;11.75;;
37455;SDS011;23316;50.718;7.328;2024-03-08T08:39:57;29.50;;;11.77;;
37455;SDS011;23316;50.718;7.328;2024-03-08T08:42:32;17.10;;;10.80;;
37455;SDS011;23316;50.718;7.328;2024-03-08T08:44:59;23.75;;;10.73;;
37455;SDS011;23316;50.718;7.328;2024-03-08T08:47:27;16.17;;;9.68;;
37455;SDS011;23316;50.718;7.328;2024-03-08T08:49:54;86.10;;;48.50;;
37455;SDS011;23316;50.718;7.328;2024-03-08T08:52:21;170.55;;;101.15;;
37455;SDS011;23316;50.718;7.328;2024-03-08T08:54:48;142.15;;;81.50;;
37455;SDS011;23316;50.718;7.328;2024-03-08T08:57:17;113.53;;;65.57;;
37455;SDS011;23316;50.718;7.328;2024-03-08T08:59:47;90.88;;;53.38;;
37455;SDS011;23316;50.718;7.328;2024-03-08T09:02:15;74.10;;;44.20;;
37455;SDS011;23316;50.718;7.328;2024-03-08T09:04:46;69.40;;;40.70;;
37455;SDS011;23316;50.718;7.328;2024-03-08T09:07:14;67.57;;;38.33;;
37455;SDS011;23316;50.718;7.328;2024-03-08T09:09:44;57.67;;;35.45;;
37455;SDS011;23316;50.718;7.328;2024-03-08T09:12:11;53.80;;;33.35;;
37455;SDS011;23316;50.718;7.328;2024-03-08T09:14:39;52.20;;;31.90;;
37455;SDS011;23316;50.718;7.328;2024-03-08T09:17:07;46.53;;;29.58;;
37455;SDS011;23316;50.718;7.328;2024-03-08T09:19:35;42.35;;;27.13;;
37455;SDS011;23316;50.718;7.328;2024-03-08T09:22:02;43.00;;;26.15;;
37455;SDS011;23316;50.718;7.328;2024-03-08T09:24:30;47.13;;;26.30;;
37455;SDS011;23316;50.718;7.328;2024-03-08T09:26:57;42.90;;;24.80;;
37455;SDS011;23316;50.718;7.328;2024-03-08T09:29:25;37.38;;;22.60;;
37455;SDS011;23316;50.718;7.328;2024-03-08T09:31:52;33.90;;;22.52;;
37455;SDS011;23316;50.718;7.328;2024-03-08T09:34:20;30.77;;;19.85;;
37455;SDS011;23316;50.718;7.328;2024-03-08T09:36:48;26.30;;;18.73;;
37455;SDS011;23316;50.718;7.328;2024-03-08T09:39:16;27.25;;;18.77;;
37455;SDS011;23316;50.718;7.328;2024-03-08T09:41:46;27.50;;;16.98;;
37455;SDS011;23316;50.718;7.328;2024-03-08T09:44:14;26.80;;;17.55;;
37455;SDS011;23316;50.718;7.328;2024-03-08T09:46:41;26.48;;;15.98;;
37455;SDS011;23316;50.718;7.328;2024-03-08T09:49:09;25.13;;;16.17;;
37455;SDS011;23316;50.718;7.328;2024-03-08T09:51:38;29.55;;;17.88;;
37455;SDS011;23316;50.718;7.328;2024-03-08T09:54:07;99.75;;;58.22;;
37455;SDS011;23316;50.718;7.328;2024-03-08T09:56:34;54.88;;;34.97;;
37455;SDS011;23316;50.718;7.328;2024-03-08T09:59:02;30.45;;;20.10;;
37455;SDS011;23316;50.718;7.328;2024-03-08T10:02:06;19.50;;;14.32;;
37455;SDS011;23316;50.718;7.328;2024-03-08T10:04:40;20.23;;;14.35;;
37455;SDS011;23316;50.718;7.328;2024-03-08T10:07:09;19.38;;;14.10;;
37455;SDS011;23316;50.718;7.328;2024-03-08T10:09:37;16.63;;;12.55;;
37455;SDS011;23316;50.718;7.328;2024-03-08T10:12:05;17.88;;;12.38;;
37455;SDS011;23316;50.718;7.328;2024-03-08T10:17:33;15.02;;;11.13;;
37455;SDS011;23316;50.718;7.328;2024-03-08T10:20:01;13.90;;;11.07;;
37455;SDS011;23316;50.718;7.328;2024-03-08T10:22:41;16.45;;;12.32;;
37455;SDS011;23316;50.718;7.328;2024-03-08T10:25:10;14.70;;;11.10;;
37455;SDS011;23316;50.718;7.328;2024-03-08T10:27:37;23.58;;;11.13;;
37455;SDS011;23316;50.718;7.328;2024-03-08T10:30:06;16.13;;;11.45;;
37455;SDS011;23316;50.718;7.328;2024-03-08T10:32:39;17.50;;;11.18;;
37455;SDS011;23316;50.718;7.328;2024-03-08T10:35:06;14.30;;;11.27;;
37455;SDS011;23316;50.718;7.328;2024-03-08T10:37:35;15.00;;;10.95;;
37455;SDS011;23316;50.718;7.328;2024-03-08T10:40:13;21.65;;;11.23;;
37455;SDS011;23316;50.718;7.328;2024-03-08T10:42:47;15.27;;;11.48;;
37455;SDS011;23316;50.718;7.328;2024-03-08T10:45:23;13.77;;;10.45;;
37455;SDS011;23316;50.718;7.328;2024-03-08T10:48:02;18.67;;;11.30;;
37455;SDS011;23316;50.718;7.328;2024-03-08T10:51:05;15.02;;;9.60;;
37455;SDS011;23316;50.718;7.328;2024-03-08T10:53:34;13.90;;;9.35;;
37455;SDS011;23316;50.718;7.328;2024-03-08T10:56:05;13.52;;;8.75;;
37455;SDS011;23316;50.718;7.328;2024-03-08T10:58:32;17.85;;;9.32;;
37455;SDS011;23316;50.718;7.328;2024-03-08T11:01:02;17.92;;;8.35;;
37455;SDS011;23316;50.718;7.328;2024-03-08T11:03:45;14.30;;;8.80;;
37455;SDS011;23316;50.718;7.328;2024-03-08T11:08:48;28.73;;;20.02;;
37455;SDS011;23316;50.718;7.328;2024-03-08T11:11:26;26.17;;;20.20;;
37455;SDS011;23316;50.718;7.328;2024-03-08T11:13:56;24.77;;;15.77;;
37455;SDS011;23316;50.718;7.328;2024-03-08T11:16:37;20.30;;;13.52;;
37455;SDS011;23316;50.718;7.328;2024-03-08T11:19:22;25.02;;;13.40;;
37455;SDS011;23316;50.718;7.328;2024-03-08T11:21:57;24.95;;;12.65;;
37455;SDS011;23316;50.718;7.328;2024-03-08T11:24:26;21.48;;;11.40;;
37455;SDS011;23316;50.718;7.328;2024-03-08T11:26:56;22.90;;;11.60;;
37455;SDS011;23316;50.718;7.328;2024-03-08T11:29:38;17.95;;;10.98;;
37455;SDS011;23316;50.718;7.328;2024-03-08T11:32:09;17.17;;;10.15;;
37455;SDS011;23316;50.718;7.328;2024-03-08T11:34:37;16.15;;;9.90;;
37455;SDS011;23316;50.718;7.328;2024-03-08T11:37:12;12.07;;;9.43;;
37455;SDS011;23316;50.718;7.328;2024-03-08T11:39:41;35.83;;;9.88;;
37455;SDS011;23316;50.718;7.328;2024-03-08T11:42:13;14.00;;;9.17;;
37455;SDS011;23316;50.718;7.328;2024-03-08T11:44:41;18.98;;;8.63;;
37455;SDS011;23316;50.718;7.328;2024-03-08T11:47:09;27.73;;;8.63;;
37455;SDS011;23316;50.718;7.328;2024-03-08T11:49:37;14.77;;;8.45;;
37455;SDS011;23316;50.718;7.328;2024-03-08T11:52:04;19.52;;;9.05;;
37455;SDS011;23316;50.718;7.328;2024-03-08T11:54:32;14.32;;;8.38;;
37455;SDS011;23316;50.718;7.328;2024-03-08T11:57:01;17.35;;;8.80;;
37455;SDS011;23316;50.718;7.328;2024-03-08T11:59:28;13.50;;;8.80;;
37455;SDS011;23316;50.718;7.328;2024-03-08T12:01:59;17.90;;;8.43;;
37455;SDS011;23316;50.718;7.328;2024-03-08T12:04:28;14.30;;;7.72;;
37455;SDS011;23316;50.718;7.328;2024-03-08T12:06:57;15.25;;;7.78;;
37455;SDS011;23316;50.718;7.328;2024-03-08T12:09:26;11.95;;;7.65;;
37455;SDS011;23316;50.718;7.328;2024-03-08T12:11:54;13.75;;;7.53;;
37455;SDS011;23316;50.718;7.328;2024-03-08T12:14:22;10.60;;;7.50;;
37455;SDS011;23316;50.718;7.328;2024-03-08T12:16:50;11.93;;;7.43;;
37455;SDS011;23316;50.718;7.328;2024-03-08T12:19:18;8.40;;;6.55;;
37455;SDS011;23316;50.718;7.328;2024-03-08T12:21:45;8.65;;;7.03;;
37455;SDS011;23316;50.718;7.328;2024-03-08T12:24:14;10.48;;;7.20;;
37455;SDS011;23316;50.718;7.328;2024-03-08T12:26:45;12.82;;;7.43;;
37455;SDS011;23316;50.718;7.328;2024-03-08T12:29:14;9.23;;;6.50;;
37455;SDS011;23316;50.718;7.328;2024-03-08T12:31:44;10.32;;;7.28;;
37455;SDS011;23316;50.718;7.328;2024-03-08T12:34:12;11.13;;;6.80;;
37455;SDS011;23316;50.718;7.328;2024-03-08T12:36:43;8.02;;;6.18;;
37455;SDS011;23316;50.718;7.328;2024-03-08T12:39:13;11.15;;;6.65;;
37455;SDS011;23316;50.718;7.328;2024-03-08T12:41:43;11.65;;;6.22;;
37455;SDS011;23316;50.718;7.328;2024-03-08T12:44:12;7.80;;;5.68;;
37455;SDS011;23316;50.718;7.328;2024-03-08T12:46:39;30.38;;;7.32;;
37455;SDS011;23316;50.718;7.328;2024-03-08T12:49:08;12.00;;;6.30;;
37455;SDS011;23316;50.718;7.328;2024-03-08T12:51:36;16.25;;;5.68;;
37455;SDS011;23316;50.718;7.328;2024-03-08T12:54:04;11.57;;;5.30;;
37455;SDS011;23316;50.718;7.328;2024-03-08T12:56:33;11.57;;;6.25;;
37455;SDS011;23316;50.718;7.328;2024-03-08T12:59:02;7.75;;;5.63;;
37455;SDS011;23316;50.718;7.328;2024-03-08T13:01:31;9.00;;;5.28;;
37455;SDS011;23316;50.718;7.328;2024-03-08T13:03:58;11.75;;;5.40;;
37455;SDS011;23316;50.718;7.328;2024-03-08T13:06:28;9.75;;;5.85;;
37455;SDS011;23316;50.718;7.328;2024-03-08T13:08:56;11.80;;;5.78;;
37455;SDS011;23316;50.718;7.328;2024-03-08T13:11:24;10.80;;;5.40;;
37455;SDS011;23316;50.718;7.328;2024-03-08T13:13:52;13.65;;;5.45;;
37455;SDS011;23316;50.718;7.328;2024-03-08T13:16:19;12.40;;;4.90;;
37455;SDS011;23316;50.718;7.328;2024-03-08T13:18:46;15.30;;;5.75;;
37455;SDS011;23316;50.718;7.328;2024-03-08T13:21:14;15.73;;;6.00;;
37455;SDS011;23316;50.718;7.328;2024-03-08T13:23:46;15.65;;;6.53;;
37455;SDS011;23316;50.718;7.328;2024-03-08T13:26:15;11.52;;;6.13;;
37455;SDS011;23316;50.718;7.328;2024-03-08T13:28:43;7.78;;;5.75;;
37455;SDS011;23316;50.718;7.328;2024-03-08T13:31:11;8.20;;;5.65;;
37455;SDS011;23316;50.718;7.328;2024-03-08T13:33:40;12.77;;;5.53;;
37455;SDS011;23316;50.718;7.328;2024-03-08T13:36:08;10.75;;;6.13;;
37455;SDS011;23316;50.718;7.328;2024-03-08T13:38:41;11.05;;;6.00;;
37455;SDS011;23316;50.718;7.328;2024-03-08T13:41:10;11.05;;;5.90;;
37455;SDS011;23316;50.718;7.328;2024-03-08T13:43:40;9.75;;;5.88;;
37455;SDS011;23316;50.718;7.328;2024-03-08T13:46:07;8.73;;;5.57;;
37455;SDS011;23316;50.718;7.328;2024-03-08T13:48:36;10.93;;;5.28;;
37455;SDS011;23316;50.718;7.328;2024-03-08T13:51:04;9.90;;;5.25;;
37455;SDS011;23316;50.718;7.328;2024-03-08T13:53:32;9.43;;;5.38;;
37455;SDS011;23316;50.718;7.328;2024-03-08T13:56:00;8.45;;;5.50;;
37455;SDS011;23316;50.718;7.328;2024-03-08T13:58:29;7.75;;;4.97;;
37455;SDS011;23316;50.718;7.328;2024-03-08T14:00:56;9.02;;;5.03;;
37455;SDS011;23316;50.718;7.328;2024-03-08T14:03:24;5.95;;;4.95;;
37455;SDS011;23316;50.718;7.328;2024-03-08T14:05:51;9.90;;;4.85;;
37455;SDS011;23316;50.718;7.328;2024-03-08T14:08:21;8.18;;;5.35;;
37455;SDS011;23316;50.718;7.328;2024-03-08T14:10:48;9.27;;;5.50;;
37455;SDS011;23316;50.718;7.328;2024-03-08T14:13:18;6.90;;;4.82;;
37455;SDS011;23316;50.718;7.328;2024-03-08T14:15:46;22.67;;;6.18;;
37455;SDS011;23316;50.718;7.328;2024-03-08T14:18:13;12.02;;;8.10;;
37455;SDS011;23316;50.718;7.328;2024-03-08T14:20:41;11.52;;;8.63;;
37455;SDS011;23316;50.718;7.328;2024-03-08T14:23:08;14.02;;;8.70;;
37455;SDS011;23316;50.718;7.328;2024-03-08T14:25:36;11.05;;;8.05;;
37455;SDS011;23316;50.718;7.328;2024-03-08T14:28:03;11.50;;;8.48;;
37455;SDS011;23316;50.718;7.328;2024-03-08T14:30:32;11.43;;;8.07;;
37455;SDS011;23316;50.718;7.328;2024-03-08T14:33:04;10.30;;;8.32;;
37455;SDS011;23316;50.718;7.328;2024-03-08T14:35:34;11.35;;;8.75;;
37455;SDS011;23316;50.718;7.328;2024-03-08T14:38:02;14.00;;;7.70;;
37455;SDS011;23316;50.718;7.328;2024-03-08T14:40:29;10.43;;;7.53;;
37455;SDS011;23316;50.718;7.328;2024-03-08T14:42:57;18.30;;;7.82;;
37455;SDS011;23316;50.718;7.328;2024-03-08T14:45:24;20.63;;;7.47;;
37455;SDS011;23316;50.718;7.328;2024-03-08T14:47:52;14.32;;;6.85;;
37455;SDS011;23316;50.718;7.328;2024-03-08T14:50:21;16.70;;;7.35;;
37455;SDS011;23316;50.718;7.328;2024-03-08T14:52:50;19.85;;;6.15;;
37455;SDS011;23316;50.718;7.328;2024-03-08T14:55:17;20.90;;;6.60;;
37455;SDS011;23316;50.718;7.328;2024-03-08T14:57:47;18.67;;;6.97;;
37455;SDS011;23316;50.718;7.328;2024-03-08T15:00:16;13.50;;;6.97;;
37455;SDS011;23316;50.718;7.328;2024-03-08T15:02:52;16.92;;;5.72;;
37455;SDS011;23316;50.718;7.328;2024-03-08T15:05:21;12.85;;;6.20;;
37455;SDS011;23316;50.718;7.328;2024-03-08T15:07:52;19.70;;;5.88;;
37455;SDS011;23316;50.718;7.328;2024-03-08T15:10:19;20.42;;;5.68;;
37455;SDS011;23316;50.718;7.328;2024-03-08T15:12:49;15.85;;;5.80;;
37455;SDS011;23316;50.718;7.328;2024-03-08T15:15:20;17.67;;;8.55;;
37455;SDS011;23316;50.718;7.328;2024-03-08T15:17:50;15.98;;;10.65;;
37455;SDS011;23316;50.718;7.328;2024-03-08T15:20:19;28.35;;;10.07;;
37455;SDS011;23316;50.718;7.328;2024-03-08T15:22:51;16.73;;;9.05;;
37455;SDS011;23316;50.718;7.328;2024-03-08T15:25:20;21.90;;;9.43;;
37455;SDS011;23316;50.718;7.328;2024-03-08T15:27:51;16.58;;;9.57;;
37455;SDS011;23316;50.718;7.328;2024-03-08T15:30:19;19.05;;;9.98;;
37455;SDS011;23316;50.718;7.328;2024-03-08T15:32:48;16.17;;;10.07;;
37455;SDS011;23316;50.718;7.328;2024-03-08T15:35:16;17.45;;;11.40;;
37455;SDS011;23316;50.718;7.328;2024-03-08T15:37:45;26.00;;;11.07;;
37455;SDS011;23316;50.718;7.328;2024-03-08T15:40:12;20.90;;;10.18;;
37455;SDS011;23316;50.718;7.328;2024-03-08T15:42:47;22.98;;;9.02;;
37455;SDS011;23316;50.718;7.328;2024-03-08T15:45:16;13.30;;;8.57;;
37455;SDS011;23316;50.718;7.328;2024-03-08T15:47:43;13.60;;;7.68;;
37455;SDS011;23316;50.718;7.328;2024-03-08T15:50:11;12.52;;;7.78;;
37455;SDS011;23316;50.718;7.328;2024-03-08T15:52:42;20.45;;;7.40;;
37455;SDS011;23316;50.718;7.328;2024-03-08T15:55:15;12.68;;;6.93;;
37455;SDS011;23316;50.718;7.328;2024-03-08T15:57:45;16.52;;;7.00;;
37455;SDS011;23316;50.718;7.328;2024-03-08T16:00:14;8.70;;;6.82;;
37455;SDS011;23316;50.718;7.328;2024-03-08T16:02:56;12.02;;;6.57;;
37455;SDS011;23316;50.718;7.328;2024-03-08T16:05:23;11.15;;;6.63;;
37455;SDS011;23316;50.718;7.328;2024-03-08T16:07:52;10.75;;;6.80;;
37455;SDS011;23316;50.718;7.328;2024-03-08T16:10:22;12.95;;;7.13;;
37455;SDS011;23316;50.718;7.328;2024-03-08T16:12:51;11.32;;;6.90;;
37455;SDS011;23316;50.718;7.328;2024-03-08T16:15:18;13.48;;;6.93;;
37455;SDS011;23316;50.718;7.328;2024-03-08T16:17:46;11.95;;;7.28;;
37455;SDS011;23316;50.718;7.328;2024-03-08T16:20:14;11.32;;;6.63;;
37455;SDS011;23316;50.718;7.328;2024-03-08T16:22:42;9.15;;;6.28;;
37455;SDS011;23316;50.718;7.328;2024-03-08T16:25:10;13.00;;;6.22;;
37455;SDS011;23316;50.718;7.328;2024-03-08T16:27:40;11.60;;;6.30;;
37455;SDS011;23316;50.718;7.328;2024-03-08T16:30:08;20.92;;;7.40;;
37455;SDS011;23316;50.718;7.328;2024-03-08T16:32:41;28.27;;;7.60;;
37455;SDS011;23316;50.718;7.328;2024-03-08T16:35:10;27.90;;;7.60;;
37455;SDS011;23316;50.718;7.328;2024-03-08T16:37:37;16.10;;;6.97;;
37455;SDS011;23316;50.718;7.328;2024-03-08T16:40:06;19.02;;;6.72;;
37455;SDS011;23316;50.718;7.328;2024-03-08T16:42:43;65.93;;;39.50;;
37455;SDS011;23316;50.718;7.328;2024-03-08T16:45:11;157.43;;;92.65;;
37455;SDS011;23316;50.718;7.328;2024-03-08T16:47:38;131.15;;;74.22;;
37455;SDS011;23316;50.718;7.328;2024-03-08T16:50:06;86.10;;;52.35;;
37455;SDS011;23316;50.718;7.328;2024-03-08T16:52:34;81.80;;;44.08;;
37455;SDS011;23316;50.718;7.328;2024-03-08T16:55:02;67.00;;;38.10;;
37455;SDS011;23316;50.718;7.328;2024-03-08T16:57:31;58.95;;;33.03;;
37455;SDS011;23316;50.718;7.328;2024-03-08T17:00:00;53.15;;;30.77;;
37455;SDS011;23316;50.718;7.328;2024-03-08T17:02:35;48.40;;;29.27;;
37455;SDS011;23316;50.718;7.328;2024-03-08T17:05:03;50.28;;;26.10;;
37455;SDS011;23316;50.718;7.328;2024-03-08T17:07:31;49.75;;;24.85;;
37455;SDS011;23316;50.718;7.328;2024-03-08T17:09:59;33.45;;;21.95;;
37455;SDS011;23316;50.718;7.328;2024-03-08T17:12:26;41.90;;;21.90;;
37455;SDS011;23316;50.718;7.328;2024-03-08T17:14:54;36.00;;;21.02;;
37455;SDS011;23316;50.718;7.328;2024-03-08T17:17:23;33.17;;;19.65;;
37455;SDS011;23316;50.718;7.328;2024-03-08T17:19:50;30.55;;;16.45;;
37455;SDS011;23316;50.718;7.328;2024-03-08T17:22:17;30.70;;;15.73;;
37455;SDS011;23316;50.718;7.328;2024-03-08T17:24:45;26.90;;;14.85;;
37455;SDS011;23316;50.718;7.328;2024-03-08T17:27:12;27.02;;;16.27;;
37455;SDS011;23316;50.718;7.328;2024-03-08T17:29:40;23.90;;;15.43;;
37455;SDS011;23316;50.718;7.328;2024-03-08T17:32:08;37.58;;;16.73;;
37455;SDS011;23316;50.718;7.328;2024-03-08T17:34:38;42.83;;;16.95;;
37455;SDS011;23316;50.718;7.328;2024-03-08T17:37:06;40.38;;;17.33;;
37455;SDS011;23316;50.718;7.328;2024-03-08T17:39:33;30.10;;;16.42;;
37455;SDS011;23316;50.718;7.328;2024-03-08T17:42:00;28.17;;;16.98;;
37455;SDS011;23316;50.718;7.328;2024-03-08T17:44:28;26.95;;;15.30;;
37455;SDS011;23316;50.718;7.328;2024-03-08T17:46:55;26.70;;;14.55;;
37455;SDS011;23316;50.718;7.328;2024-03-08T17:49:23;22.50;;;13.73;;
37455;SDS011;23316;50.718;7.328;2024-03-08T17:51:51;27.15;;;14.30;;
37455;SDS011;23316;50.718;7.328;2024-03-08T17:54:18;20.67;;;12.40;;
37455;SDS011;23316;50.718;7.328;2024-03-08T17:56:46;19.75;;;11.88;;
37455;SDS011;23316;50.718;7.328;2024-03-08T17:59:13;21.27;;;11.68;;
37455;SDS011;23316;50.718;7.328;2024-03-08T18:01:41;75.38;;;11.85;;
37455;SDS011;23316;50.718;7.328;2024-03-08T18:04:09;34.95;;;11.00;;
37455;SDS011;23316;50.718;7.328;2024-03-08T18:06:36;30.63;;;10.13;;
37455;SDS011;23316;50.718;7.328;2024-03-08T18:09:07;29.88;;;10.63;;
37455;SDS011;23316;50.718;7.328;2024-03-08T18:11:36;63.45;;;39.25;;
37455;SDS011;23316;50.718;7.328;2024-03-08T18:14:04;96.80;;;50.60;;
37455;SDS011;23316;50.718;7.328;2024-03-08T18:16:34;78.82;;;45.47;;
37455;SDS011;23316;50.718;7.328;2024-03-08T18:19:04;60.65;;;35.03;;
37455;SDS011;23316;50.718;7.328;2024-03-08T18:21:37;51.72;;;31.73;;
37455;SDS011;23316;50.718;7.328;2024-03-08T18:24:05;43.50;;;24.92;;
37455;SDS011;23316;50.718;7.328;2024-03-08T18:26:34;42.28;;;24.13;;